Time,TemperatureF,DewpointF,PressureIn,WindDirection,WindDirectionDegrees,WindSpeedMPH,WindSpeedGustMPH,Humidity,HourlyPrecipIn,Conditions,Clouds,dailyrainin,SoftwareType,DateUTC
2013-03-10 00:03:00,38.8,31.9,30.20,SSW,212,7.0,7.0,76,0.00,OVC,,0.00,WeatherDisplay:10.37,2013-03-10 08:03:00,
2013-03-10 00:08:00,39.7,32.4,30.21,SW,235,8.1,8.1,75,0.00,OVC,,0.00,WeatherDisplay:10.37,2013-03-10 08:08:00,
2013-03-10 00:13:00,41.1,32.8,30.20,SSW,211,11.5,11.5,72,0.00,OVC,,0.00,WeatherDisplay:10.37,2013-03-10 08:13:00,
2013-03-10 00:19:00,40.7,32.4,30.21,WSW,242,8.1,8.1,72,0.00,OVC,,0.00,WeatherDisplay:10.37,2013-03-10 08:19:00,
2013-03-10 00:24:00,41.4,32.3,30.22,SSW,211,8.1,8.1,70,0.00,OVC,,0.00,WeatherDisplay:10.37,2013-03-10 08:24:00,
2013-03-10 00:29:00,40.0,31.7,30.22,SW,221,9.0,9.0,72,0.00,OVC,,0.00,WeatherDisplay:10.37,2013-03-10 08:29:00,
2013-03-10 00:34:00,38.8,30.9,30.22,SSW,213,8.1,8.1,73,0.00,OVC,,0.00,WeatherDisplay:10.37,2013-03-10 08:34:00,
2013-03-10 00:39:00,36.8,30.3,30.22,SW,229,7.0,7.0,77,0.00,OVC,,0.00,WeatherDisplay:10.37,2013-03-10 08:39:00,
2013-03-10 00:44:00,36.8,30.9,30.23,WSW,237,6.0,6.0,79,0.00,OVC,,0.00,WeatherDisplay:10.37,2013-03-10 08:44:00,
2013-03-10 00:49:00,38.1,31.8,30.23,SW,235,4.6,4.6,78,0.00,OVC,,0.00,WeatherDisplay:10.37,2013-03-10 08:49:00,
2013-03-10 00:54:00,36.2,29.4,30.23,SSW,196,7.0,7.0,76,0.00,OVC,,0.00,WeatherDisplay:10.37,2013-03-10 08:54:00,
2013-03-10 00:59:00,34.7,29.5,30.23,SSW,196,6.9,6.9,81,0.00,OVC,,0.00,WeatherDisplay:10.37,2013-03-10 08:59:00,
2013-03-10 01:04:00,35.6,30.9,30.23,SW,217,4.0,4.0,83,0.00,CLR,,0.00,WeatherDisplay:10.37,2013-03-10 09:04:00,
2013-03-10 01:10:00,34.5,29.3,30.24,SSW,206,4.0,4.0,81,0.00,CLR,,0.00,WeatherDisplay:10.37,2013-03-10 09:10:00,
2013-03-10 01:15:00,33.9,29.3,30.24,SSW,206,3.5,3.5,83,0.00,OVC,,0.00,WeatherDisplay:10.37,2013-03-10 09:15:00,
2013-03-10 01:20:00,33.5,29.2,30.24,SSW,207,6.9,6.9,84,0.00,CLR,,0.00,WeatherDisplay:10.37,2013-03-10 09:20:00,
2013-03-10 01:25:00,33.6,29.6,30.24,WSW,245,5.0,5.0,85,0.00,CLR,,0.00,WeatherDisplay:10.37,2013-03-10 09:25:00,
2013-03-10 01:30:00,36.1,31.4,30.24,WSW,238,3.5,3.5,83,0.00,CLR,,0.00,WeatherDisplay:10.37,2013-03-10 09:30:00,
2013-03-10 01:36:00,37.2,31.6,30.24,WSW,238,2.3,2.3,80,0.00,CLR,,0.00,WeatherDisplay:10.37,2013-03-10 09:36:00,
2013-03-10 01:41:00,38.2,31.9,30.24,WSW,238,6.0,6.0,78,0.00,CLR,,0.00,WeatherDisplay:10.37,2013-03-10 09:41:00,
2013-03-10 01:46:00,38.3,31.1,30.24,WSW,240,8.1,8.1,75,0.00,CLR,,0.00,WeatherDisplay:10.37,2013-03-10 09:46:00,
2013-03-10 01:51:00,37.0,30.5,30.24,SW,223,6.0,6.0,77,0.00,CLR,,0.00,WeatherDisplay:10.37,2013-03-10 09:51:00,
2013-03-10 01:56:00,35.6,29.4,30.24,WSW,246,5.0,5.0,78,0.00,CLR,,0.00,WeatherDisplay:10.37,2013-03-10 09:56:00,
2013-03-10 03:01:00,34.1,28.9,30.24,WSW,244,3.5,3.5,81,0.00,CLR,,0.00,WeatherDisplay:10.37,2013-03-10 10:01:00,
2013-03-10 03:07:00,33.7,29.1,30.24,WSW,237,3.5,3.5,83,0.00,CLR,,0.00,WeatherDisplay:10.37,2013-03-10 10:07:00,
2013-03-10 03:12:00,33.3,29.0,30.24,SW,214,4.0,4.0,84,0.00,CLR,,0.00,WeatherDisplay:10.37,2013-03-10 10:12:00,
2013-03-10 03:17:00,32.1,27.5,30.23,South,189,6.0,6.0,83,0.00,CLR,,0.00,WeatherDisplay:10.37,2013-03-10 10:17:00,
2013-03-10 03:22:00,31.5,28.1,30.23,SSW,194,10.4,10.4,87,0.00,CLR,,0.00,WeatherDisplay:10.37,2013-03-10 10:22:00,
2013-03-10 03:27:00,32.4,29.0,30.23,SW,219,11.5,11.5,87,0.00,CLR,,0.00,WeatherDisplay:10.37,2013-03-10 10:27:00,
2013-03-10 03:32:00,34.7,30.1,30.23,SW,232,9.2,9.2,83,0.00,CLR,,0.00,WeatherDisplay:10.37,2013-03-10 10:32:00,
2013-03-10 03:37:00,36.3,29.8,30.24,WSW,238,9.2,9.2,77,0.00,CLR,,0.00,WeatherDisplay:10.37,2013-03-10 10:37:00,
2013-03-10 03:42:00,35.7,29.2,30.23,SW,224,7.0,7.0,77,0.00,CLR,,0.00,WeatherDisplay:10.37,2013-03-10 10:42:00,
2013-03-10 03:47:00,35.7,29.2,30.23,SW,232,6.0,8.0,77,0.00,CLR,,0.00,WeatherDisplay:10.37,2013-03-10 10:47:00,
2013-03-10 03:52:00,36.0,28.8,30.23,SW,233,3.0,7.0,75,0.00,CLR,,0.00,WeatherDisplay:10.37,2013-03-10 10:52:00,
2013-03-10 03:57:00,33.9,28.1,30.23,SW,227,7.0,8.0,79,0.00,CLR,,0.00,WeatherDisplay:10.37,2013-03-10 10:57:00,
2013-03-10 04:02:00,37.1,30.3,30.23,WSW,242,6.0,7.0,76,0.00,CLR,,0.00,WeatherDisplay:10.37,2013-03-10 11:02:00,
2013-03-10 04:07:00,38.2,29.2,30.23,West,266,5.0,7.0,70,0.00,CLR,,0.00,WeatherDisplay:10.37,2013-03-10 11:07:00,
2013-03-10 04:12:00,36.0,28.5,30.24,West,276,3.0,7.0,74,0.00,CLR,,0.00,WeatherDisplay:10.37,2013-03-10 11:12:00,
2013-03-10 04:17:00,33.9,27.5,30.24,ESE,108,3.0,6.0,77,0.00,CLR,,0.00,WeatherDisplay:10.37,2013-03-10 11:17:00,
2013-03-10 04:22:00,34.1,28.3,30.24,ESE,108,2.0,5.0,79,0.00,CLR,,0.00,WeatherDisplay:10.37,2013-03-10 11:22:00,
2013-03-10 04:27:00,33.9,28.1,30.24,ESE,108,3.5,3.5,79,0.00,CLR,,0.00,WeatherDisplay:10.37,2013-03-10 11:27:00,
2013-03-10 04:32:00,33.2,27.4,30.24,ESE,108,3.5,3.5,79,0.00,CLR,,0.00,WeatherDisplay:10.37,2013-03-10 11:32:00,
2013-03-10 04:37:00,32.9,27.7,30.24,South,182,4.0,4.0,81,0.00,CLR,,0.00,WeatherDisplay:10.37,2013-03-10 11:37:00,
2013-03-10 04:43:00,34.0,28.5,30.25,South,182,3.5,3.5,80,0.00,CLR,,0.00,WeatherDisplay:10.37,2013-03-10 11:43:00,
2013-03-10 04:48:00,34.8,29.3,30.24,South,182,3.5,3.5,80,0.00,CLR,,0.00,WeatherDisplay:10.37,2013-03-10 11:48:00,
2013-03-10 04:53:00,35.1,28.9,30.25,South,182,2.3,0.0,78,0.00,CLR,,0.00,WeatherDisplay:10.37,2013-03-10 11:53:00,
2013-03-10 04:59:00,33.0,25.9,30.25,NNE,14,3.5,3.5,75,0.00,CLR,,0.00,WeatherDisplay:10.37,2013-03-10 11:59:00,
2013-03-10 05:04:00,31.2,26.0,30.25,NNE,14,0.0,0.0,81,0.00,OVC,,0.00,WeatherDisplay:10.37,2013-03-10 12:04:00,
2013-03-10 05:09:00,30.4,25.9,30.26,NNE,14,0.0,0.0,83,0.00,OVC,,0.00,WeatherDisplay:10.37,2013-03-10 12:09:00,
2013-03-10 05:14:00,30.5,26.8,30.25,NNE,14,0.0,0.0,86,0.00,OVC,,0.00,WeatherDisplay:10.37,2013-03-10 12:14:00,
2013-03-10 05:20:00,30.6,26.9,30.26,WNW,300,3.5,3.5,86,0.00,OVC,,0.00,WeatherDisplay:10.37,2013-03-10 12:20:00,
2013-03-10 05:25:00,30.2,26.8,30.26,WNW,300,3.5,3.5,87,0.00,OVC,,0.00,WeatherDisplay:10.37,2013-03-10 12:25:00,
2013-03-10 05:30:00,30.1,26.7,30.26,WNW,300,2.3,2.3,87,0.00,OVC,,0.00,WeatherDisplay:10.37,2013-03-10 12:30:00,
2013-03-10 05:35:00,30.1,27.0,30.26,WNW,300,3.5,3.5,88,0.00,OVC,,0.00,WeatherDisplay:10.37,2013-03-10 12:35:00,
2013-03-10 05:40:00,30.3,27.2,30.26,WNW,300,4.0,4.0,88,0.00,OVC,,0.00,WeatherDisplay:10.37,2013-03-10 12:40:00,
2013-03-10 05:45:00,30.7,27.6,30.26,ENE,63,3.5,3.5,88,0.00,OVC,,0.00,WeatherDisplay:10.37,2013-03-10 12:45:00,
2013-03-10 05:50:00,31.1,28.0,30.26,ENE,63,2.3,2.3,88,0.00,OVC,,0.00,WeatherDisplay:10.37,2013-03-10 12:50:00,
2013-03-10 05:55:00,30.8,27.1,30.26,ENE,76,3.5,3.5,86,0.00,OVC,,0.00,WeatherDisplay:10.37,2013-03-10 12:55:00,
2013-03-10 06:00:00,29.9,25.7,30.26,SSE,156,5.0,5.0,84,0.00,OVC,,0.00,WeatherDisplay:10.37,2013-03-10 13:00:00,
2013-03-10 06:06:00,29.2,25.8,30.26,SSE,153,4.6,4.6,87,0.00,OVC,,0.00,WeatherDisplay:10.37,2013-03-10 13:06:00,
2013-03-10 06:11:00,29.2,26.1,30.26,SSE,154,2.3,2.3,88,0.00,OVC,,0.00,WeatherDisplay:10.37,2013-03-10 13:11:00,
2013-03-10 06:16:00,29.7,26.9,30.26,WSW,238,4.0,4.0,89,0.00,OVC,,0.00,WeatherDisplay:10.37,2013-03-10 13:16:00,
2013-03-10 06:21:00,28.5,24.8,30.27,West,267,5.0,5.0,86,0.00,OVC,,0.00,WeatherDisplay:10.37,2013-03-10 13:21:00,
2013-03-10 06:26:00,27.9,24.8,30.27,WSW,243,4.0,4.0,88,0.00,OVC,,0.00,WeatherDisplay:10.37,2013-03-10 13:26:00,
2013-03-10 06:31:00,27.6,24.8,30.27,South,173,5.0,5.0,89,0.00,OVC,,0.00,WeatherDisplay:10.37,2013-03-10 13:31:00,
2013-03-10 06:36:00,27.8,25.2,30.27,South,176,5.8,5.8,90,0.00,OVC,,0.00,WeatherDisplay:10.37,2013-03-10 13:36:00,
2013-03-10 06:41:00,28.9,26.1,30.28,SSW,194,6.0,6.0,89,0.00,OVC,,0.00,WeatherDisplay:10.37,2013-03-10 13:41:00,
2013-03-10 06:46:00,28.9,26.1,30.28,SSW,211,6.0,6.0,89,0.00,OVC,,0.00,WeatherDisplay:10.37,2013-03-10 13:46:00,
2013-03-10 06:52:00,28.6,25.5,30.28,WSW,244,4.0,4.0,88,0.00,OVC,,0.00,WeatherDisplay:10.37,2013-03-10 13:52:00,
2013-03-10 06:57:00,28.1,25.0,30.28,WSW,253,3.5,3.5,88,0.00,OVC,,0.00,WeatherDisplay:10.37,2013-03-10 13:57:00,
2013-03-10 07:02:00,28.1,25.2,30.28,WSW,252,3.0,4.0,89,0.00,CLR,,0.00,WeatherDisplay:10.37,2013-03-10 14:02:00,
2013-03-10 07:07:00,28.4,25.6,30.29,WSW,249,6.0,7.0,89,0.00,CLR,,0.00,WeatherDisplay:10.37,2013-03-10 14:07:00,
2013-03-10 07:12:00,28.3,25.2,30.29,SW,230,7.0,9.0,88,0.00,CLR,,0.00,WeatherDisplay:10.37,2013-03-10 14:12:00,
2013-03-10 07:17:00,28.0,24.9,30.29,SW,223,4.6,4.6,88,0.00,CLR,,0.00,WeatherDisplay:10.37,2013-03-10 14:17:00,
2013-03-10 07:22:00,28.4,25.3,30.29,SW,223,2.0,3.0,88,0.00,CLR,,0.00,WeatherDisplay:10.37,2013-03-10 14:22:00,
2013-03-10 07:27:00,28.8,25.4,30.29,SW,223,3.0,4.0,87,0.00,CLR,,0.00,WeatherDisplay:10.37,2013-03-10 14:27:00,
2013-03-10 07:32:00,28.9,25.2,30.30,SW,223,2.0,3.0,86,0.00,CLR,,0.00,WeatherDisplay:10.37,2013-03-10 14:32:00,
2013-03-10 07:37:00,29.4,25.7,30.30,SW,223,0.0,3.0,86,0.00,CLR,,0.00,WeatherDisplay:10.37,2013-03-10 14:37:00,
2013-03-10 07:42:00,29.8,25.9,30.30,SW,223,0.0,2.0,85,0.00,CLR,,0.00,WeatherDisplay:10.37,2013-03-10 14:42:00,
2013-03-10 07:47:00,30.0,25.7,30.30,SW,223,2.0,4.0,84,0.00,CLR,,0.00,WeatherDisplay:10.37,2013-03-10 14:47:00,
2013-03-10 07:52:00,30.4,26.5,30.31,SW,218,6.0,7.0,85,0.00,CLR,,0.00,WeatherDisplay:10.37,2013-03-10 14:52:00,
2013-03-10 07:57:00,32.1,27.6,30.30,WSW,237,5.0,6.0,83,0.00,CLR,,0.00,WeatherDisplay:10.37,2013-03-10 14:57:00,
2013-03-10 08:02:00,32.6,28.0,30.31,West,267,5.0,6.0,83,0.00,CLR,,0.00,WeatherDisplay:10.37,2013-03-10 15:02:00,
2013-03-10 08:07:00,33.7,29.4,30.30,WNW,288,3.5,3.5,84,0.00,CLR,,0.00,WeatherDisplay:10.37,2013-03-10 15:07:00,
2013-03-10 08:12:00,35.2,30.9,30.31,WNW,292,2.0,3.0,84,0.00,CLR,,0.00,WeatherDisplay:10.37,2013-03-10 15:12:00,
2013-03-10 08:17:00,36.8,32.5,30.31,WNW,302,1.0,3.0,84,0.00,CLR,,0.00,WeatherDisplay:10.37,2013-03-10 15:17:00,
2013-03-10 08:22:00,37.4,32.4,30.31,North,0,3.0,4.0,82,0.00,CLR,,0.00,WeatherDisplay:10.37,2013-03-10 15:22:00,
2013-03-10 08:27:00,37.0,32.0,30.31,NNE,30,2.0,5.0,82,0.00,CLR,,0.00,WeatherDisplay:10.37,2013-03-10 15:27:00,
2013-03-10 08:32:00,37.4,32.1,30.31,NNE,30,2.0,4.0,81,0.00,CLR,,0.00,WeatherDisplay:10.37,2013-03-10 15:32:00,
2013-03-10 08:38:00,37.2,31.9,30.31,NNE,30,0.0,0.0,81,0.00,CLR,,0.00,WeatherDisplay:10.37,2013-03-10 15:38:00,
2013-03-10 08:43:00,38.2,32.6,30.31,NNE,30,1.1,0.0,80,0.00,CLR,,0.00,WeatherDisplay:10.37,2013-03-10 15:43:00,
2013-03-10 08:48:00,39.3,33.0,30.31,NE,53,4.0,4.0,78,0.00,CLR,,0.00,WeatherDisplay:10.37,2013-03-10 15:48:00,
2013-03-10 08:53:00,39.8,33.5,30.31,NE,53,2.3,2.3,78,0.00,CLR,,0.00,WeatherDisplay:10.37,2013-03-10 15:53:00,
2013-03-10 08:58:00,40.0,33.7,30.31,NE,53,2.3,2.3,78,0.00,CLR,,0.00,WeatherDisplay:10.37,2013-03-10 15:58:00,
2013-03-10 09:03:00,41.1,33.4,30.31,NE,53,3.5,3.5,74,0.00,CLR,,0.00,WeatherDisplay:10.37,2013-03-10 16:03:00,
2013-03-10 09:08:00,41.6,33.2,30.31,ENE,69,8.1,8.1,72,0.00,CLR,,0.00,WeatherDisplay:10.37,2013-03-10 16:08:00,
2013-03-10 09:13:00,41.5,33.5,30.32,NE,49,4.6,4.6,73,0.00,CLR,,0.00,WeatherDisplay:10.37,2013-03-10 16:13:00,
2013-03-10 09:19:00,42.3,34.3,30.32,NE,42,2.3,2.3,73,0.00,CLR,,0.00,WeatherDisplay:10.37,2013-03-10 16:19:00,
2013-03-10 09:24:00,43.7,34.9,30.32,South,186,0.0,0.0,71,0.00,CLR,,0.00,WeatherDisplay:10.37,2013-03-10 16:24:00,
2013-03-10 09:29:00,45.3,35.4,30.32,NE,38,3.5,3.5,68,0.00,CLR,,0.00,WeatherDisplay:10.37,2013-03-10 16:29:00,
2013-03-10 09:34:00,46.0,35.7,30.32,NE,38,0.0,0.0,67,0.00,CLR,,0.00,WeatherDisplay:10.37,2013-03-10 16:34:00,
2013-03-10 09:39:00,46.0,35.3,30.32,NE,41,4.0,4.0,66,0.00,CLR,,0.00,WeatherDisplay:10.37,2013-03-10 16:39:00,
2013-03-10 09:44:00,45.9,34.8,30.32,NE,49,6.0,6.0,65,0.00,CLR,,0.00,WeatherDisplay:10.37,2013-03-10 16:44:00,
2013-03-10 09:50:00,46.2,35.1,30.32,NE,51,4.6,4.6,65,0.00,CLR,,0.00,WeatherDisplay:10.37,2013-03-10 16:50:00,
2013-03-10 09:55:00,46.7,34.4,30.32,NE,44,5.0,5.0,62,0.00,CLR,,0.00,WeatherDisplay:10.37,2013-03-10 16:55:00,
2013-03-10 10:00:00,47.1,35.1,30.33,ENE,58,7.0,7.0,63,0.00,CLR,,0.00,WeatherDisplay:10.37,2013-03-10 17:00:00,
2013-03-10 10:05:00,47.4,34.6,30.33,ENE,67,8.1,8.1,61,0.00,CLR,,0.00,WeatherDisplay:10.37,2013-03-10 17:05:00,
2013-03-10 10:10:00,47.5,33.9,30.33,ENE,59,6.9,6.9,59,0.00,CLR,,0.00,WeatherDisplay:10.37,2013-03-10 17:10:00,
2013-03-10 10:15:00,48.5,34.8,30.33,NE,51,4.6,4.6,59,0.00,CLR,,0.00,WeatherDisplay:10.37,2013-03-10 17:15:00,
2013-03-10 10:20:00,48.6,34.0,30.33,ENE,61,6.9,6.9,57,0.00,CLR,,0.00,WeatherDisplay:10.37,2013-03-10 17:20:00,
2013-03-10 10:25:00,48.8,33.8,30.33,NE,49,4.6,4.6,56,0.00,CLR,,0.00,WeatherDisplay:10.37,2013-03-10 17:25:00,
2013-03-10 10:30:00,49.6,34.1,30.33,NE,44,4.0,4.0,55,0.00,CLR,,0.00,WeatherDisplay:10.37,2013-03-10 17:30:00,
2013-03-10 10:35:00,50.1,34.5,30.33,NE,37,5.8,5.8,55,0.00,CLR,,0.00,WeatherDisplay:10.37,2013-03-10 17:35:00,
2013-03-10 10:40:00,50.5,34.5,30.32,ENE,71,8.1,8.1,54,0.00,CLR,,0.00,WeatherDisplay:10.37,2013-03-10 17:40:00,
2013-03-10 10:46:00,50.3,34.7,30.32,ENE,59,8.1,8.1,55,0.00,CLR,,0.00,WeatherDisplay:10.37,2013-03-10 17:46:00,
2013-03-10 10:51:00,50.9,35.3,30.32,ENE,62,8.1,8.1,55,0.00,CLR,,0.00,WeatherDisplay:10.37,2013-03-10 17:51:00,
2013-03-10 10:56:00,52.1,35.0,30.32,ENE,72,9.0,9.0,52,0.00,CLR,,0.00,WeatherDisplay:10.37,2013-03-10 17:56:00,
2013-03-10 11:01:00,52.2,33.6,30.32,NE,51,6.9,6.9,49,0.00,CLR,,0.00,WeatherDisplay:10.37,2013-03-10 18:01:00,
2013-03-10 11:07:00,52.8,33.6,30.32,ENE,73,8.1,8.1,48,0.00,OVC,,0.00,WeatherDisplay:10.37,2013-03-10 18:07:00,
2013-03-10 11:12:00,53.0,33.8,30.32,ENE,63,9.2,9.2,48,0.00,OVC,,0.00,WeatherDisplay:10.37,2013-03-10 18:12:00,
2013-03-10 11:17:00,53.5,34.3,30.32,ENE,75,8.1,8.1,48,0.00,OVC,,0.00,WeatherDisplay:10.37,2013-03-10 18:17:00,
2013-03-10 11:22:00,54.1,30.9,30.32,NNE,20,5.8,5.8,41,0.00,OVC,,0.00,WeatherDisplay:10.37,2013-03-10 18:22:00,
2013-03-10 11:27:00,56.2,32.8,30.31,NE,46,6.0,6.0,41,0.00,OVC,,0.00,WeatherDisplay:10.37,2013-03-10 18:27:00,
2013-03-10 11:32:00,57.2,32.4,30.31,NE,36,7.0,10.0,39,0.00,CLR,,0.00,WeatherDisplay:10.37,2013-03-10 18:32:00,
2013-03-10 11:37:00,57.0,32.3,30.31,NE,44,5.0,9.0,39,0.00,CLR,,0.00,WeatherDisplay:10.37,2013-03-10 18:37:00,
2013-03-10 11:42:00,58.0,29.0,30.31,NNE,30,9.2,9.2,33,0.00,OVC,,0.00,WeatherDisplay:10.37,2013-03-10 18:42:00,
2013-03-10 11:48:00,57.9,31.1,30.30,NE,39,11.5,11.5,36,0.00,OVC,,0.00,WeatherDisplay:10.37,2013-03-10 18:48:00,
2013-03-10 11:53:00,58.4,29.4,30.31,NE,49,9.2,9.2,33,0.00,OVC,,0.00,WeatherDisplay:10.37,2013-03-10 18:53:00,
2013-03-10 11:58:00,58.9,28.3,30.31,ENE,59,10.0,10.0,31,0.00,OVC,,0.00,WeatherDisplay:10.37,2013-03-10 18:58:00,
2013-03-10 12:03:00,59.5,24.5,30.31,NE,39,6.9,6.9,26,0.00,OVC,,0.00,WeatherDisplay:10.37,2013-03-10 19:03:00,
2013-03-10 12:08:00,59.9,23.9,30.31,NNW,347,8.1,8.1,25,0.00,OVC,,0.00,WeatherDisplay:10.37,2013-03-10 19:08:00,
2013-03-10 12:13:00,60.1,25.1,30.31,NE,36,8.1,8.1,26,0.00,OVC,,0.00,WeatherDisplay:10.37,2013-03-10 19:13:00,
2013-03-10 12:19:00,60.3,25.2,30.31,NE,48,5.0,5.0,26,0.00,OVC,,0.00,WeatherDisplay:10.37,2013-03-10 19:19:00,
2013-03-10 12:24:00,60.4,25.3,30.30,North,360,5.8,5.8,26,0.00,OVC,,0.00,WeatherDisplay:10.37,2013-03-10 19:24:00,
2013-03-10 12:29:00,61.3,23.1,30.30,ENE,74,6.0,6.0,23,0.00,OVC,,0.00,WeatherDisplay:10.37,2013-03-10 19:29:00,
2013-03-10 12:34:00,61.1,23.0,30.30,North,11,5.8,5.8,23,0.00,OVC,,0.00,WeatherDisplay:10.37,2013-03-10 19:34:00,
2013-03-10 12:39:00,61.2,20.9,30.30,NE,47,6.0,6.0,21,0.00,OVC,,0.00,WeatherDisplay:10.37,2013-03-10 19:39:00,
2013-03-10 12:44:00,61.9,19.1,30.29,NNE,24,9.2,9.2,19,0.00,OVC,,0.00,WeatherDisplay:10.37,2013-03-10 19:44:00,
2013-03-10 12:49:00,61.9,20.3,30.29,ENE,74,8.0,8.0,20,0.00,OVC,,0.00,WeatherDisplay:10.37,2013-03-10 19:49:00,
2013-03-10 12:54:00,61.9,17.9,30.29,ENE,62,10.4,10.4,18,0.00,OVC,,0.00,WeatherDisplay:10.37,2013-03-10 19:54:00,
2013-03-10 12:59:00,61.6,18.9,30.29,North,5,6.9,6.9,19,0.00,OVC,,0.00,WeatherDisplay:10.37,2013-03-10 19:59:00,
2013-03-10 13:04:00,62.0,20.4,30.28,SW,234,4.0,4.0,20,0.00,OVC,,0.00,WeatherDisplay:10.37,2013-03-10 20:04:00,
2013-03-10 13:09:00,62.1,21.7,30.28,NE,45,6.9,6.9,21,0.00,OVC,,0.00,WeatherDisplay:10.37,2013-03-10 20:09:00,
2013-03-10 13:15:00,63.4,21.6,30.27,North,5,2.3,2.3,20,0.00,OVC,,0.00,WeatherDisplay:10.37,2013-03-10 20:15:00,
2013-03-10 13:20:00,63.6,21.7,30.27,ENE,59,11.5,11.5,20,0.00,OVC,,0.00,WeatherDisplay:10.37,2013-03-10 20:20:00,
2013-03-10 13:25:00,62.8,21.1,30.27,ENE,61,10.4,10.4,20,0.00,OVC,,0.00,WeatherDisplay:10.37,2013-03-10 20:25:00,
2013-03-10 13:30:00,62.5,22.0,30.26,NNE,27,4.0,4.0,21,0.00,OVC,,0.00,WeatherDisplay:10.37,2013-03-10 20:30:00,
2013-03-10 13:35:00,63.7,15.1,30.26,NE,51,13.8,13.8,15,0.00,OVC,,0.00,WeatherDisplay:10.37,2013-03-10 20:35:00,
2013-03-10 13:40:00,64.1,15.4,30.25,NNW,335,8.1,8.1,15,0.00,OVC,,0.00,WeatherDisplay:10.37,2013-03-10 20:40:00,
2013-03-10 13:45:00,64.5,15.8,30.25,NE,42,13.0,13.0,15,0.00,OVC,,0.00,WeatherDisplay:10.37,2013-03-10 20:45:00,
2013-03-10 13:51:00,65.1,16.2,30.25,NNE,19,8.1,8.1,15,0.00,OVC,,0.00,WeatherDisplay:10.37,2013-03-10 20:51:00,
2013-03-10 13:56:00,65.1,14.7,30.25,NE,43,12.7,12.7,14,0.00,OVC,,0.00,WeatherDisplay:10.37,2013-03-10 20:56:00,
2013-03-10 14:01:00,64.0,15.4,30.25,NNE,26,3.5,3.5,15,0.00,OVC,,0.00,WeatherDisplay:10.37,2013-03-10 21:01:00,
2013-03-10 14:06:00,65.0,14.6,30.24,NNE,12,10.4,10.4,14,0.00,OVC,,0.00,WeatherDisplay:10.37,2013-03-10 21:06:00,
2013-03-10 14:12:00,65.1,13.0,30.24,North,11,6.9,6.9,13,0.00,OVC,,0.00,WeatherDisplay:10.37,2013-03-10 21:12:00,
2013-03-10 14:17:00,65.3,14.8,30.24,NNE,19,5.0,10.0,14,0.00,CLR,,0.00,WeatherDisplay:10.37,2013-03-10 21:17:00,
2013-03-10 14:22:00,65.3,14.8,30.24,NE,43,5.0,12.0,14,0.00,CLR,,0.00,WeatherDisplay:10.37,2013-03-10 21:22:00,
2013-03-10 14:27:00,64.7,14.4,30.23,NE,52,1.0,5.0,14,0.00,CLR,,0.00,WeatherDisplay:10.37,2013-03-10 21:27:00,
2013-03-10 14:32:00,65.8,15.2,30.23,NNE,25,8.0,12.0,14,0.00,CLR,,0.00,WeatherDisplay:10.37,2013-03-10 21:32:00,
2013-03-10 14:37:00,66.3,15.6,30.23,NNE,22,7.0,14.0,14,0.00,CLR,,0.00,WeatherDisplay:10.37,2013-03-10 21:37:00,
2013-03-10 14:42:00,65.8,15.2,30.23,North,354,3.0,13.0,14,0.00,CLR,,0.00,WeatherDisplay:10.37,2013-03-10 21:42:00,
2013-03-10 14:47:00,66.2,15.5,30.22,North,6,9.0,12.0,14,0.00,CLR,,0.00,WeatherDisplay:10.37,2013-03-10 21:47:00,
2013-03-10 14:52:00,65.3,14.8,30.22,NE,39,5.0,15.0,14,0.00,CLR,,0.00,WeatherDisplay:10.37,2013-03-10 21:52:00,
2013-03-10 14:58:00,65.3,14.8,30.22,NE,44,6.9,6.9,14,0.00,OVC,,0.00,WeatherDisplay:10.37,2013-03-10 21:58:00,
2013-03-10 15:03:00,65.8,13.5,30.22,NE,51,11.5,11.5,13,0.00,OVC,,0.00,WeatherDisplay:10.37,2013-03-10 22:03:00,
2013-03-10 15:08:00,65.9,13.6,30.21,North,360,11.5,11.5,13,0.00,OVC,,0.00,WeatherDisplay:10.37,2013-03-10 22:08:00,
2013-03-10 15:13:00,66.6,14.2,30.21,NNE,26,8.1,8.1,13,0.00,OVC,,0.00,WeatherDisplay:10.37,2013-03-10 22:13:00,
2013-03-10 15:18:00,67.1,12.7,30.21,North,10,8.0,8.0,12,0.00,OVC,,0.00,WeatherDisplay:10.37,2013-03-10 22:18:00,
2013-03-10 15:23:00,66.8,14.3,30.21,North,5,8.1,8.1,13,0.00,OVC,,0.00,WeatherDisplay:10.37,2013-03-10 22:23:00,
2013-03-10 15:28:00,67.2,16.3,30.20,NE,48,9.0,9.0,14,0.00,CLR,,0.00,WeatherDisplay:10.37,2013-03-10 22:28:00,
2013-03-10 15:34:00,67.2,14.6,30.20,NE,46,8.1,8.1,13,0.00,OVC,,0.00,WeatherDisplay:10.37,2013-03-10 22:34:00,
2013-03-10 15:39:00,66.8,14.3,30.20,NNE,15,10.4,10.4,13,0.00,OVC,,0.00,WeatherDisplay:10.37,2013-03-10 22:39:00,
2013-03-10 15:44:00,67.0,12.6,30.20,NW,324,8.1,8.1,12,0.00,OVC,,0.00,WeatherDisplay:10.37,2013-03-10 22:44:00,
2013-03-10 15:49:00,67.0,14.5,30.20,NNW,346,11.5,11.5,13,0.00,OVC,,0.00,WeatherDisplay:10.37,2013-03-10 22:49:00,
2013-03-10 15:54:00,66.5,14.1,30.20,ENE,74,8.1,8.1,13,0.00,OVC,,0.00,WeatherDisplay:10.37,2013-03-10 22:54:00,
2013-03-10 16:00:00,66.3,15.6,30.19,East,84,16.0,16.0,14,0.00,OVC,,0.00,WeatherDisplay:10.37,2013-03-10 23:00:00,
2013-03-10 16:05:00,66.1,13.8,30.20,WNW,300,6.9,6.9,13,0.00,OVC,,0.00,WeatherDisplay:10.37,2013-03-10 23:05:00,
2013-03-10 16:10:00,66.2,13.8,30.19,WNW,299,8.1,8.1,13,0.00,OVC,,0.00,WeatherDisplay:10.37,2013-03-10 23:10:00,
2013-03-10 16:15:00,66.7,12.4,30.20,NE,38,3.5,3.5,12,0.00,OVC,,0.00,WeatherDisplay:10.37,2013-03-10 23:15:00,
2013-03-10 16:20:00,67.2,14.6,30.20,North,355,8.1,8.1,13,0.00,OVC,,0.00,WeatherDisplay:10.37,2013-03-10 23:20:00,
2013-03-10 16:25:00,67.2,16.3,30.19,NE,45,1.1,1.1,14,0.00,OVC,,0.00,WeatherDisplay:10.37,2013-03-10 23:25:00,
2013-03-10 16:30:00,67.5,13.0,30.19,NE,36,5.0,5.0,12,0.00,OVC,,0.00,WeatherDisplay:10.37,2013-03-10 23:30:00,
2013-03-10 16:35:00,67.6,13.1,30.19,NNE,21,11.0,11.0,12,0.00,OVC,,0.00,WeatherDisplay:10.37,2013-03-10 23:35:00,
2013-03-10 16:40:00,67.2,12.8,30.18,North,9,6.9,6.9,12,0.00,OVC,,0.00,WeatherDisplay:10.37,2013-03-10 23:40:00,
2013-03-10 16:46:00,67.6,13.1,30.19,NE,48,5.0,5.0,12,0.00,OVC,,0.00,WeatherDisplay:10.37,2013-03-10 23:46:00,
2013-03-10 16:51:00,67.6,13.1,30.19,NNE,24,8.1,8.1,12,0.00,OVC,,0.00,WeatherDisplay:10.37,2013-03-10 23:51:00,
2013-03-10 16:56:00,67.2,12.8,30.18,NE,34,9.2,9.2,12,0.00,OVC,,0.00,WeatherDisplay:10.37,2013-03-10 23:56:00,
2013-03-10 17:01:00,67.3,12.9,30.18,NE,40,8.1,8.1,12,0.00,OVC,,0.00,WeatherDisplay:10.37,2013-03-11 00:01:00,
2013-03-10 17:06:00,67.5,13.0,30.18,NNW,348,5.8,5.8,12,0.00,OVC,,0.00,WeatherDisplay:10.37,2013-03-11 00:06:00,
2013-03-10 17:11:00,68.1,13.5,30.18,NE,41,5.0,5.0,12,0.00,OVC,,0.00,WeatherDisplay:10.37,2013-03-11 00:11:00,
2013-03-10 17:17:00,67.7,13.2,30.18,NE,43,9.2,9.2,12,0.00,OVC,,0.00,WeatherDisplay:10.37,2013-03-11 00:17:00,
2013-03-10 17:49:00,66.9,14.4,30.18,NE,37,8.1,8.1,13,0.00,OVC,,0.00,WeatherDisplay:10.37,2013-03-11 00:49:00,
2013-03-10 17:54:00,66.7,15.9,30.17,ENE,75,10.4,10.4,14,0.00,OVC,,0.00,WeatherDisplay:10.37,2013-03-11 00:54:00,
2013-03-10 17:59:00,65.8,16.8,30.17,East,98,8.1,8.1,15,0.00,OVC,,0.00,WeatherDisplay:10.37,2013-03-11 00:59:00,
2013-03-10 18:05:00,65.6,15.1,30.18,East,89,8.0,8.0,14,0.00,OVC,,0.00,WeatherDisplay:10.37,2013-03-11 01:05:00,
2013-03-10 18:10:00,65.4,16.5,30.18,East,79,7.0,7.0,15,0.00,OVC,,0.00,WeatherDisplay:10.37,2013-03-11 01:10:00,
2013-03-10 18:15:00,65.2,16.3,30.18,ENE,78,8.1,8.1,15,0.00,OVC,,0.00,WeatherDisplay:10.37,2013-03-11 01:15:00,
2013-03-10 18:20:00,65.0,17.7,30.18,East,84,6.0,6.0,16,0.00,OVC,,0.00,WeatherDisplay:10.37,2013-03-11 01:20:00,
2013-03-10 18:25:00,64.7,17.4,30.18,East,92,6.9,6.9,16,0.00,OVC,,0.00,WeatherDisplay:10.37,2013-03-11 01:25:00,
2013-03-10 18:32:00,64.4,17.2,30.18,East,92,6.0,6.0,16,0.00,OVC,,0.00,WeatherDisplay:10.37,2013-03-11 01:32:00,
2013-03-10 18:37:00,64.1,18.4,30.18,East,92,5.0,6.0,17,0.00,CLR,,0.00,WeatherDisplay:10.37,2013-03-11 01:37:00,
2013-03-10 18:42:00,63.9,18.2,30.18,East,92,3.0,5.0,17,0.00,CLR,,0.00,WeatherDisplay:10.37,2013-03-11 01:42:00,
2013-03-10 18:47:00,63.6,17.9,30.18,East,92,3.0,5.0,17,0.00,CLR,,0.00,WeatherDisplay:10.37,2013-03-11 01:47:00,
2013-03-10 18:52:00,63.1,18.9,30.18,East,92,5.0,5.0,18,0.00,CLR,,0.00,WeatherDisplay:10.37,2013-03-11 01:52:00,
2013-03-10 18:57:00,62.7,19.8,30.18,East,92,5.0,6.0,19,0.00,CLR,,0.00,WeatherDisplay:10.37,2013-03-11 01:57:00,
2013-03-10 19:02:00,62.4,19.5,30.18,East,92,3.0,5.0,19,0.00,CLR,,0.00,WeatherDisplay:10.37,2013-03-11 02:02:00,
2013-03-10 19:07:00,62.0,20.4,30.18,East,92,3.0,5.0,20,0.00,CLR,,0.00,WeatherDisplay:10.37,2013-03-11 02:07:00,
2013-03-10 19:13:00,61.4,24.2,30.18,East,92,3.5,3.5,24,0.00,OVC,,0.00,WeatherDisplay:10.37,2013-03-11 02:13:00,
2013-03-10 19:18:00,60.7,20.5,30.18,East,92,2.3,2.3,21,0.00,OVC,,0.00,WeatherDisplay:10.37,2013-03-11 02:18:00,
2013-03-10 19:23:00,61.0,21.8,30.18,East,92,1.1,1.1,22,0.00,OVC,,0.00,WeatherDisplay:10.37,2013-03-11 02:23:00,
2013-03-10 19:28:00,59.1,26.0,30.18,WSW,239,4.0,4.0,28,0.00,CLR,,0.00,WeatherDisplay:10.37,2013-03-11 02:28:00,
2013-03-10 19:33:00,57.6,22.9,30.18,SW,227,5.0,5.0,26,0.00,OVC,,0.00,WeatherDisplay:10.37,2013-03-11 02:33:00,
2013-03-10 19:39:00,57.5,22.8,30.18,SW,235,5.0,5.0,26,0.00,OVC,,0.00,WeatherDisplay:10.37,2013-03-11 02:39:00,
2013-03-10 19:44:00,57.6,22.0,30.18,SW,236,4.0,4.0,25,0.00,OVC,,0.00,WeatherDisplay:10.37,2013-03-11 02:44:00,
2013-03-10 19:49:00,58.1,22.4,30.19,WSW,241,12.0,12.0,25,0.00,OVC,,0.00,WeatherDisplay:10.37,2013-03-11 02:49:00,
2013-03-10 19:54:00,54.1,34.8,30.19,SW,224,11.5,11.5,48,0.00,OVC,,0.00,WeatherDisplay:10.37,2013-03-11 02:54:00,
2013-03-10 20:00:00,53.8,38.0,30.19,SW,218,12.0,12.0,55,0.00,OVC,,0.00,WeatherDisplay:10.37,2013-03-11 03:00:00,
2013-03-10 20:05:00,53.5,39.1,30.19,SW,232,11.5,11.5,58,0.00,OVC,,0.00,WeatherDisplay:10.37,2013-03-11 03:05:00,
2013-03-10 20:10:00,53.1,39.1,30.19,WSW,252,7.0,7.0,59,0.00,OVC,,0.00,WeatherDisplay:10.37,2013-03-11 03:10:00,
2013-03-10 20:15:00,52.8,39.7,30.19,WSW,249,8.0,8.0,61,0.00,OVC,,0.00,WeatherDisplay:10.37,2013-03-11 03:15:00,
2013-03-10 20:20:00,52.6,39.5,30.19,WSW,242,9.2,9.2,61,0.00,OVC,,0.00,WeatherDisplay:10.37,2013-03-11 03:20:00,
2013-03-10 20:25:00,51.9,39.7,30.19,WSW,246,8.1,8.1,63,0.00,OVC,,0.00,WeatherDisplay:10.37,2013-03-11 03:25:00,
2013-03-10 20:30:00,51.9,39.7,30.19,WSW,238,8.1,8.1,63,0.00,OVC,,0.00,WeatherDisplay:10.37,2013-03-11 03:30:00,
2013-03-10 20:36:00,51.2,39.4,30.19,WSW,238,8.1,8.1,64,0.00,OVC,,0.00,WeatherDisplay:10.37,2013-03-11 03:36:00,
2013-03-10 20:41:00,50.9,39.5,30.19,SW,236,9.0,9.0,65,0.00,OVC,,0.00,WeatherDisplay:10.37,2013-03-11 03:41:00,
2013-03-10 20:46:00,50.4,37.9,30.19,SW,228,11.0,11.0,62,0.00,OVC,,0.00,WeatherDisplay:10.37,2013-03-11 03:46:00,
2013-03-10 20:52:00,50.1,37.2,30.19,SW,218,12.7,12.7,61,0.00,OVC,,0.00,WeatherDisplay:10.37,2013-03-11 03:52:00,
2013-03-10 20:57:00,50.4,37.0,30.19,SW,227,13.8,13.8,60,0.00,OVC,,0.00,WeatherDisplay:10.37,2013-03-11 03:57:00,
2013-03-10 21:00:00,50.4,36.6,30.19,SW,222,13.0,13.0,59,0.00,OVC,,0.00,WeatherDisplay:10.37,2013-03-11 04:00:00,
2013-03-10 21:01:00,50.3,36.5,30.19,SW,219,13.0,13.0,59,0.00,OVC,,0.00,WeatherDisplay:10.37,2013-03-11 04:01:00,
2013-03-10 21:07:00,50.2,36.0,30.19,SW,236,13.8,13.8,58,0.00,OVC,,0.00,WeatherDisplay:10.37,2013-03-11 04:07:00,
2013-03-10 21:12:00,49.7,35.5,30.19,SW,235,12.7,12.7,58,0.00,OVC,,0.00,WeatherDisplay:10.37,2013-03-11 04:12:00,
2013-03-10 21:17:00,50.2,35.5,30.20,SW,232,12.0,13.0,57,0.00,CLR,,0.00,WeatherDisplay:10.37,2013-03-11 04:17:00,
2013-03-10 21:22:00,50.5,35.4,30.20,SW,228,12.0,12.0,56,0.00,CLR,,0.00,WeatherDisplay:10.37,2013-03-11 04:22:00,
2013-03-10 21:27:00,49.9,34.8,30.20,SW,229,13.0,14.0,56,0.00,CLR,,0.00,WeatherDisplay:10.37,2013-03-11 04:27:00,
2013-03-10 21:32:00,50.7,34.7,30.20,SW,236,12.0,14.0,54,0.00,CLR,,0.00,WeatherDisplay:10.37,2013-03-11 04:32:00,
2013-03-10 21:37:00,51.0,34.4,30.20,WSW,240,9.0,12.0,53,0.00,CLR,,0.00,WeatherDisplay:10.37,2013-03-11 04:37:00,
2013-03-10 21:42:00,51.4,34.8,30.20,WSW,240,13.0,14.0,53,0.00,CLR,,0.00,WeatherDisplay:10.37,2013-03-11 04:42:00,
2013-03-10 21:47:00,51.5,34.9,30.20,WSW,252,11.5,11.5,53,0.00,OVC,,0.00,WeatherDisplay:10.37,2013-03-11 04:47:00,
2013-03-10 21:52:00,50.0,34.5,30.20,SW,224,11.0,11.0,55,0.00,OVC,,0.00,WeatherDisplay:10.37,2013-03-11 04:52:00,
2013-03-10 21:58:00,49.7,35.1,30.20,SW,233,11.5,11.5,57,0.00,OVC,,0.00,WeatherDisplay:10.37,2013-03-11 04:58:00,
2013-03-10 22:03:00,49.6,34.5,30.20,SW,221,11.5,11.5,56,0.00,OVC,,0.00,WeatherDisplay:10.37,2013-03-11 05:03:00,
2013-03-10 22:08:00,48.8,34.7,30.20,SSW,213,11.0,11.0,58,0.00,OVC,,0.00,WeatherDisplay:10.37,2013-03-11 05:08:00,
2013-03-10 22:13:00,48.8,34.7,30.20,SW,217,11.5,11.5,58,0.00,OVC,,0.00,WeatherDisplay:10.37,2013-03-11 05:13:00,
2013-03-10 22:18:00,49.0,34.9,30.21,SSW,209,9.2,9.2,58,0.00,OVC,,0.00,WeatherDisplay:10.37,2013-03-11 05:18:00,
2013-03-10 22:23:00,49.5,34.9,30.20,SW,220,12.7,12.7,57,0.00,OVC,,0.00,WeatherDisplay:10.37,2013-03-11 05:23:00,
2013-03-10 22:28:00,48.9,33.4,30.21,SW,221,12.7,12.7,55,0.00,OVC,,0.00,WeatherDisplay:10.37,2013-03-11 05:28:00,
2013-03-10 22:33:00,46.2,32.2,30.21,SW,229,12.7,12.7,58,0.00,OVC,,0.00,WeatherDisplay:10.37,2013-03-11 05:33:00,
2013-03-10 22:38:00,45.8,32.3,30.21,SW,217,10.4,10.4,59,0.00,OVC,,0.00,WeatherDisplay:10.37,2013-03-11 05:38:00,
2013-03-10 22:43:00,45.4,31.5,30.21,SW,232,11.5,11.5,58,0.00,CLR,,0.00,WeatherDisplay:10.37,2013-03-11 05:43:00,
2013-03-10 22:48:00,45.2,30.9,30.21,SW,220,11.5,11.5,57,0.00,OVC,,0.00,WeatherDisplay:10.37,2013-03-11 05:48:00,
2013-03-10 22:53:00,45.5,31.1,30.21,SW,232,11.5,11.5,57,0.00,OVC,,0.00,WeatherDisplay:10.37,2013-03-11 05:53:00,
2013-03-10 22:59:00,46.4,31.1,30.21,SW,219,11.0,11.0,55,0.00,OVC,,0.00,WeatherDisplay:10.37,2013-03-11 05:59:00,
2013-03-10 23:04:00,46.8,30.6,30.21,SW,217,10.4,10.4,53,0.00,OVC,,0.00,WeatherDisplay:10.37,2013-03-11 06:04:00,
2013-03-10 23:09:00,46.5,30.7,30.21,SSW,212,10.4,10.4,54,0.00,OVC,,0.00,WeatherDisplay:10.37,2013-03-11 06:09:00,
2013-03-10 23:14:00,45.5,29.8,30.21,SW,215,8.1,8.1,54,0.00,OVC,,0.00,WeatherDisplay:10.37,2013-03-11 06:14:00,
2013-03-10 23:19:00,44.3,29.6,30.21,SW,215,6.9,6.9,56,0.00,OVC,,0.00,WeatherDisplay:10.37,2013-03-11 06:19:00,
2013-03-10 23:24:00,42.7,29.8,30.21,SSW,211,6.9,6.9,60,0.00,OVC,,0.00,WeatherDisplay:10.37,2013-03-11 06:24:00,
2013-03-10 23:29:00,40.3,29.5,30.21,SSW,196,8.1,8.1,65,0.00,OVC,,0.00,WeatherDisplay:10.37,2013-03-11 06:29:00,
2013-03-10 23:34:00,39.8,29.7,30.21,SW,215,10.4,10.4,67,0.00,OVC,,0.00,WeatherDisplay:10.37,2013-03-11 06:34:00,
2013-03-10 23:39:00,40.2,29.7,30.21,SSW,208,9.2,9.2,66,0.00,OVC,,0.00,WeatherDisplay:10.37,2013-03-11 06:39:00,
2013-03-10 23:45:00,40.4,29.6,30.21,SW,227,10.4,10.4,65,0.00,OVC,,0.00,WeatherDisplay:10.37,2013-03-11 06:45:00,
2013-03-10 23:50:00,40.5,29.7,30.20,SW,228,10.4,10.4,65,0.00,OVC,,0.00,WeatherDisplay:10.37,2013-03-11 06:50:00,
2013-03-10 23:55:00,41.3,30.0,30.20,WSW,238,11.5,11.5,64,0.00,OVC,,0.00,WeatherDisplay:10.37,2013-03-11 06:55:00,